createdAt,value
2022-08-25T00:01:57.537Z,0
2022-08-25T00:04:23.611Z,0
2022-08-25T00:06:48.727Z,0
2022-08-25T00:09:14.837Z,0
2022-08-25T00:11:40.921Z,0
2022-08-25T00:14:07.020Z,0
2022-08-25T00:16:33.109Z,0
2022-08-25T00:18:59.200Z,0
2022-08-25T00:21:24.329Z,0
2022-08-25T00:23:50.427Z,0
2022-08-25T00:26:15.549Z,0
2022-08-25T00:28:40.652Z,0
2022-08-25T00:31:05.777Z,0
2022-08-25T00:33:30.875Z,0
2022-08-25T00:35:56.995Z,0
2022-08-25T00:38:23.085Z,0
2022-08-25T00:40:49.182Z,0
2022-08-25T00:43:15.259Z,0
2022-08-25T00:45:41.353Z,0
2022-08-25T00:48:07.463Z,0
2022-08-25T00:52:59.645Z,0
2022-08-25T00:55:25.735Z,0
2022-08-25T00:57:51.827Z,0
2022-08-25T01:00:17.965Z,0
2022-08-25T01:02:44.021Z,0
2022-08-25T01:05:09.141Z,0
2022-08-25T01:07:35.242Z,0
2022-08-25T01:10:01.347Z,0
2022-08-25T01:12:27.444Z,0
2022-08-25T01:14:53.526Z,0
2022-08-25T01:17:19.621Z,0
2022-08-25T01:19:45.718Z,0
2022-08-25T01:22:11.847Z,0
2022-08-25T01:24:36.947Z,0
2022-08-25T01:27:02.032Z,0
2022-08-25T01:29:28.136Z,0
2022-08-25T01:31:54.223Z,0
2022-08-25T01:34:20.328Z,0
2022-08-25T01:36:46.417Z,0
2022-08-25T01:39:12.527Z,0
2022-08-25T01:41:38.622Z,0
2022-08-25T01:44:04.697Z,0
2022-08-25T01:46:30.793Z,0
2022-08-25T01:48:55.920Z,0
2022-08-25T01:51:22.024Z,0
2022-08-25T01:53:48.102Z,0
2022-08-25T01:56:14.207Z,0
2022-08-25T01:58:40.299Z,0
2022-08-25T02:01:06.422Z,0
2022-08-25T02:03:32.491Z,0
2022-08-25T02:05:58.586Z,0
2022-08-25T02:08:24.677Z,0
2022-08-25T02:10:50.780Z,0
2022-08-25T02:13:16.869Z,0
2022-08-25T02:15:42.035Z,0
2022-08-25T02:18:07.119Z,0
2022-08-25T02:20:32.226Z,0
2022-08-25T02:22:57.334Z,0
2022-08-25T02:25:23.443Z,0
2022-08-25T02:27:49.523Z,0
2022-08-25T02:30:15.632Z,0
2022-08-25T02:32:41.739Z,0
2022-08-25T02:35:07.822Z,0
2022-08-25T02:37:33.912Z,0
2022-08-25T02:40:00.019Z,0
2022-08-25T02:42:26.110Z,0
2022-08-25T02:44:52.202Z,0
2022-08-25T02:47:18.297Z,0
2022-08-25T02:49:44.384Z,0
2022-08-25T02:52:10.495Z,0
2022-08-25T02:54:35.604Z,0
2022-08-25T02:57:01.692Z,0
2022-08-25T02:59:27.786Z,0
2022-08-25T03:01:53.887Z,0
2022-08-25T03:04:19.997Z,0
2022-08-25T03:06:46.065Z,0
2022-08-25T03:09:12.171Z,0
2022-08-25T03:11:37.286Z,0
2022-08-25T03:14:02.401Z,0
2022-08-25T03:16:27.535Z,0
2022-08-25T03:18:52.624Z,0
2022-08-25T03:21:18.722Z,0
2022-08-25T03:23:43.869Z,0
2022-08-25T03:26:08.968Z,0
2022-08-25T03:28:35.065Z,0
2022-08-25T03:31:01.164Z,0
2022-08-25T03:33:27.250Z,0
2022-08-25T03:35:53.400Z,0
2022-08-25T03:38:19.439Z,0
2022-08-25T03:40:45.544Z,0
2022-08-25T03:43:11.625Z,0
2022-08-25T03:45:37.744Z,0
2022-08-25T03:48:03.833Z,0
2022-08-25T03:50:29.921Z,0
2022-08-25T03:52:56.025Z,0
2022-08-25T03:55:22.118Z,0
2022-08-25T03:57:47.217Z,0
2022-08-25T04:00:13.307Z,0
2022-08-25T04:02:39.423Z,0
2022-08-25T04:05:05.509Z,0
2022-08-25T04:07:31.613Z,0
2022-08-25T04:09:57.701Z,0
2022-08-25T04:12:23.805Z,0
2022-08-25T04:14:48.917Z,0
2022-08-25T04:17:14.038Z,0
2022-08-25T04:19:40.127Z,0
2022-08-25T04:22:06.232Z,0
2022-08-25T04:24:32.314Z,5
2022-08-25T04:26:58.414Z,5
2022-08-25T04:29:24.545Z,5
2022-08-25T04:31:50.596Z,11
2022-08-25T04:34:16.707Z,11
2022-08-25T04:36:42.794Z,16
2022-08-25T04:39:08.894Z,22
2022-08-25T04:41:34.990Z,22
2022-08-25T04:44:01.079Z,28
2022-08-25T04:46:27.181Z,33
2022-08-25T04:48:52.292Z,39
2022-08-25T04:51:18.394Z,45
2022-08-25T04:53:44.468Z,45
2022-08-25T04:56:10.575Z,50
2022-08-25T04:58:36.691Z,56
2022-08-25T05:01:02.767Z,56
2022-08-25T05:03:28.859Z,61
2022-08-25T05:05:53.972Z,67
2022-08-25T05:08:19.079Z,67
2022-08-25T05:10:45.172Z,73
2022-08-25T05:13:11.282Z,84
2022-08-25T05:15:37.376Z,84
2022-08-25T05:18:03.470Z,90
2022-08-25T05:20:29.564Z,95
2022-08-25T05:22:55.744Z,95
2022-08-25T05:25:21.737Z,101
2022-08-25T05:27:47.851Z,106
2022-08-25T05:30:13.933Z,106
2022-08-25T05:32:40.058Z,112
2022-08-25T05:35:06.117Z,112
2022-08-25T05:37:32.226Z,112
2022-08-25T05:39:57.335Z,118
2022-08-25T05:42:23.427Z,118
2022-08-25T05:44:49.524Z,118
2022-08-25T05:47:15.623Z,123
2022-08-25T05:49:41.716Z,123
2022-08-25T05:52:07.810Z,129
2022-08-25T05:54:33.905Z,129
2022-08-25T05:56:59.021Z,129
2022-08-25T05:59:24.147Z,135
2022-08-25T06:01:49.255Z,135
2022-08-25T06:04:14.377Z,140
2022-08-25T06:06:39.503Z,140
2022-08-25T06:09:04.600Z,140
2022-08-25T06:11:29.731Z,146
2022-08-25T06:13:54.838Z,146
2022-08-25T06:16:20.927Z,146
2022-08-25T06:18:47.023Z,146
2022-08-25T06:21:13.123Z,151
2022-08-25T06:23:39.226Z,151
2022-08-25T06:26:05.300Z,151
2022-08-25T06:28:31.411Z,157
2022-08-25T06:30:57.505Z,157
2022-08-25T06:35:49.694Z,157
2022-08-25T06:38:15.783Z,163
2022-08-25T06:40:41.891Z,163
2022-08-25T06:45:34.079Z,163
2022-08-25T06:47:59.203Z,163
2022-08-25T06:50:24.307Z,163
2022-08-25T06:52:50.411Z,168
2022-08-25T06:55:16.494Z,168
2022-08-25T06:57:42.600Z,163
2022-08-25T07:00:08.686Z,163
2022-08-25T07:02:34.800Z,163
2022-08-25T07:05:00.880Z,163
2022-08-25T07:07:26.964Z,168
2022-08-25T07:09:53.063Z,168
2022-08-25T07:12:19.161Z,168
2022-08-25T07:14:44.275Z,168
2022-08-25T07:17:09.396Z,168
2022-08-25T07:19:35.483Z,168
2022-08-25T07:22:01.580Z,174
2022-08-25T07:24:27.665Z,174
2022-08-25T07:26:53.759Z,174
2022-08-25T07:29:19.886Z,174
2022-08-25T07:31:45.964Z,174
2022-08-25T07:34:12.056Z,174
2022-08-25T07:36:38.175Z,174
2022-08-25T07:39:04.255Z,174
2022-08-25T07:41:30.380Z,174
2022-08-25T07:43:56.426Z,180
2022-08-25T07:46:22.530Z,180
2022-08-25T07:48:47.638Z,180
2022-08-25T07:51:13.751Z,180
2022-08-25T07:53:39.835Z,180
2022-08-25T07:56:05.962Z,180
2022-08-25T07:58:32.038Z,180
2022-08-25T08:00:58.149Z,180
2022-08-25T08:03:24.255Z,180
2022-08-25T08:05:49.369Z,185
2022-08-25T08:08:14.444Z,185
2022-08-25T08:10:40.588Z,185
2022-08-25T08:13:06.673Z,185
2022-08-25T08:15:31.748Z,185
2022-08-25T08:17:56.911Z,185
2022-08-25T08:20:22.993Z,185
2022-08-25T08:22:49.092Z,191
2022-08-25T08:25:15.176Z,191
2022-08-25T08:27:41.250Z,191
2022-08-25T08:30:07.353Z,191
2022-08-25T08:32:33.484Z,191
2022-08-25T08:34:59.535Z,185
2022-08-25T08:37:25.681Z,185
2022-08-25T08:39:51.771Z,185
2022-08-25T08:42:17.837Z,191
2022-08-25T08:44:43.940Z,196
2022-08-25T08:47:10.029Z,196
2022-08-25T08:49:35.168Z,196
2022-08-25T08:52:01.238Z,196
2022-08-25T08:54:27.312Z,202
2022-08-25T08:56:53.412Z,202
2022-08-25T08:59:19.502Z,202
2022-08-25T09:01:45.614Z,202
2022-08-25T09:04:11.699Z,208
2022-08-25T09:06:36.836Z,208
2022-08-25T09:09:01.927Z,208
2022-08-25T09:11:27.088Z,213
2022-08-25T09:13:52.158Z,219
2022-08-25T09:16:18.275Z,225
2022-08-25T09:18:44.367Z,225
2022-08-25T09:21:10.491Z,230
2022-08-25T09:23:36.587Z,230
2022-08-25T09:26:02.666Z,230
2022-08-25T09:28:28.772Z,230
2022-08-25T09:30:54.870Z,236
2022-08-25T09:33:20.961Z,241
2022-08-25T09:35:47.029Z,247
2022-08-25T09:38:13.145Z,247
2022-08-25T09:40:39.235Z,247
2022-08-25T09:43:05.310Z,225
2022-08-25T09:45:30.454Z,241
2022-08-25T09:47:56.504Z,241
2022-08-25T09:50:22.601Z,259
2022-08-25T09:52:48.722Z,253
2022-08-25T09:55:14.835Z,253
2022-08-25T09:57:39.928Z,271
2022-08-25T10:00:06.044Z,276
2022-08-25T10:02:31.121Z,265
2022-08-25T10:04:56.283Z,276
2022-08-25T10:07:21.395Z,259
2022-08-25T10:09:46.492Z,247
2022-08-25T10:12:12.572Z,247
2022-08-25T10:14:38.668Z,265
2022-08-25T10:17:04.788Z,247
2022-08-25T10:19:30.872Z,236
2022-08-25T10:21:56.983Z,271
2022-08-25T10:24:23.043Z,271
2022-08-25T10:26:49.169Z,287
2022-08-25T10:29:15.233Z,225
2022-08-25T10:31:41.343Z,287
2022-08-25T10:34:07.419Z,293
2022-08-25T10:36:33.519Z,304
2022-08-25T10:38:59.620Z,276
2022-08-25T10:41:24.810Z,265
2022-08-25T10:43:50.842Z,276
2022-08-25T10:46:16.953Z,293
2022-08-25T10:48:43.065Z,241
2022-08-25T10:51:09.125Z,271
2022-08-25T10:53:35.199Z,253
2022-08-25T10:56:01.309Z,299
2022-08-25T10:58:26.456Z,338
2022-08-25T11:00:51.520Z,372
2022-08-25T11:03:17.649Z,422
2022-08-25T11:05:43.786Z,366
2022-08-25T11:08:08.870Z,383
2022-08-25T11:10:33.989Z,316
2022-08-25T11:13:00.047Z,327
2022-08-25T11:15:26.180Z,394
2022-08-25T11:17:52.235Z,507
2022-08-25T11:20:18.339Z,451
2022-08-25T11:22:44.440Z,394
2022-08-25T11:25:10.559Z,361
2022-08-25T11:27:36.623Z,361
2022-08-25T11:30:02.749Z,355
2022-08-25T11:32:28.837Z,355
2022-08-25T11:34:54.908Z,361
2022-08-25T11:37:20.990Z,366
2022-08-25T11:39:47.100Z,372
2022-08-25T11:42:12.240Z,439
2022-08-25T11:44:38.324Z,406
2022-08-25T11:47:04.389Z,406
2022-08-25T11:49:30.514Z,394
2022-08-25T11:51:56.600Z,394
2022-08-25T11:54:22.702Z,400
2022-08-25T11:56:48.794Z,394
2022-08-25T11:59:13.929Z,355
2022-08-25T12:01:39.051Z,417
2022-08-25T12:04:05.146Z,484
2022-08-25T12:06:30.279Z,547
2022-08-25T12:08:55.365Z,507
2022-08-25T12:11:21.468Z,456
2022-08-25T12:13:47.527Z,479
2022-08-25T12:16:13.628Z,451
2022-08-25T12:18:39.756Z,451
2022-08-25T12:21:05.854Z,467
2022-08-25T12:23:31.937Z,558
2022-08-25T12:25:57.999Z,570
2022-08-25T12:28:24.119Z,547
2022-08-25T12:30:50.467Z,530
2022-08-25T12:33:16.291Z,553
2022-08-25T12:35:42.398Z,581
2022-08-25T12:38:08.482Z,581
2022-08-25T12:40:33.607Z,615
2022-08-25T12:42:59.734Z,1258
2022-08-25T12:45:25.825Z,3506
2022-08-25T12:47:51.900Z,4924
2022-08-25T12:50:17.999Z,4844
2022-08-25T12:52:44.102Z,4748
2022-08-25T12:55:10.158Z,4257
2022-08-25T12:57:35.294Z,4545
2022-08-25T13:00:00.418Z,581
2022-08-25T13:02:25.545Z,525
2022-08-25T13:04:50.667Z,626
2022-08-25T13:07:16.757Z,615
2022-08-25T13:09:42.847Z,620
2022-08-25T13:12:08.923Z,637
2022-08-25T13:14:35.011Z,592
2022-08-25T13:17:01.115Z,542
2022-08-25T13:19:27.236Z,490
2022-08-25T13:21:53.323Z,496
2022-08-25T13:24:19.441Z,592
2022-08-25T13:26:45.492Z,530
2022-08-25T13:29:11.622Z,490
2022-08-25T13:31:38.182Z,490
2022-08-25T13:34:03.835Z,513
2022-08-25T13:36:28.875Z,598
2022-08-25T13:38:54.974Z,615
2022-08-25T13:43:47.175Z,609
2022-08-25T13:46:13.284Z,693
2022-08-25T13:48:39.414Z,2907
2022-08-25T13:51:05.488Z,3868
2022-08-25T13:53:31.568Z,406
2022-08-25T13:55:56.724Z,750
2022-08-25T13:58:21.783Z,3585
2022-08-25T14:00:47.253Z,3218
2022-08-25T14:03:12.014Z,3371
2022-08-25T14:05:38.115Z,3901
2022-08-25T14:08:04.222Z,3924
2022-08-25T14:10:30.341Z,4122
2022-08-25T14:12:56.425Z,3749
2022-08-25T14:15:22.544Z,3975
2022-08-25T14:17:48.607Z,1123
2022-08-25T14:20:14.733Z,525
2022-08-25T14:22:40.794Z,530
2022-08-25T14:25:06.930Z,558
2022-08-25T14:27:32.991Z,1162
2022-08-25T14:29:59.077Z,626
2022-08-25T14:32:25.226Z,665
2022-08-25T14:34:50.284Z,790
2022-08-25T14:37:16.378Z,3619
2022-08-25T14:39:42.510Z,3128
2022-08-25T14:42:08.806Z,525
2022-08-25T14:44:34.670Z,473
2022-08-25T14:47:00.763Z,507
2022-08-25T14:49:26.867Z,727
2022-08-25T14:51:51.998Z,587
2022-08-25T14:54:17.093Z,654
2022-08-25T14:56:42.211Z,620
2022-08-25T14:59:07.358Z,558
2022-08-25T15:01:33.465Z,931
2022-08-25T15:03:59.554Z,3195
2022-08-25T15:06:25.635Z,886
2022-08-25T15:08:51.744Z,525
2022-08-25T15:11:17.859Z,479
2022-08-25T15:13:43.959Z,2891
2022-08-25T15:16:10.066Z,1394
2022-08-25T15:18:36.126Z,2134
2022-08-25T15:21:02.208Z,2874
2022-08-25T15:23:28.304Z,2788
2022-08-25T15:25:54.438Z,394
2022-08-25T15:28:20.507Z,361
2022-08-25T15:30:45.630Z,361
2022-08-25T15:33:11.728Z,406
2022-08-25T15:35:37.829Z,784
2022-08-25T15:38:03.930Z,801
2022-08-25T15:40:30.012Z,2416
2022-08-25T15:42:56.088Z,2134
2022-08-25T15:45:22.217Z,615
2022-08-25T15:47:47.333Z,445
2022-08-25T15:50:12.411Z,422
2022-08-25T15:52:37.564Z,2032
2022-08-25T15:55:02.695Z,383
2022-08-25T15:57:28.771Z,389
2022-08-25T15:59:54.842Z,400
2022-08-25T16:02:20.980Z,525
2022-08-25T16:04:47.078Z,400
2022-08-25T16:07:13.163Z,377
2022-08-25T16:09:39.231Z,355
2022-08-25T16:12:05.364Z,355
2022-08-25T16:14:31.461Z,1450
2022-08-25T16:16:57.544Z,1676
2022-08-25T16:19:23.656Z,1710
2022-08-25T16:21:49.747Z,1400
2022-08-25T16:24:15.838Z,1552
2022-08-25T16:26:40.957Z,1575
2022-08-25T16:29:07.043Z,1461
2022-08-25T16:31:33.132Z,1315
2022-08-25T16:33:59.236Z,1310
2022-08-25T16:36:25.299Z,1293
2022-08-25T16:38:51.431Z,1247
2022-08-25T16:41:17.524Z,1185
2022-08-25T16:43:42.609Z,1235
2022-08-25T16:46:07.727Z,1213
2022-08-25T16:48:32.847Z,1162
2022-08-25T16:50:58.009Z,1106
2022-08-25T16:53:24.045Z,1055
2022-08-25T16:55:50.169Z,1044
2022-08-25T16:58:16.277Z,993
2022-08-25T17:00:42.330Z,908
2022-08-25T17:03:08.476Z,858
2022-08-25T17:05:34.578Z,824
2022-08-25T17:08:00.639Z,779
2022-08-25T17:10:26.765Z,716
2022-08-25T17:12:52.863Z,677
2022-08-25T17:15:18.931Z,643
2022-08-25T17:17:45.028Z,598
2022-08-25T17:20:11.193Z,394
2022-08-25T17:22:36.223Z,180
2022-08-25T17:25:02.315Z,163
2022-08-25T17:27:28.468Z,157
2022-08-25T17:29:54.515Z,151
2022-08-25T17:32:20.608Z,140
2022-08-25T17:34:46.697Z,135
2022-08-25T17:37:12.797Z,123
2022-08-25T17:39:37.915Z,118
2022-08-25T17:42:03.037Z,112
2022-08-25T17:44:29.156Z,106
2022-08-25T17:46:55.223Z,95
2022-08-25T17:49:21.324Z,90
2022-08-25T17:51:47.410Z,84
2022-08-25T17:54:13.498Z,73
2022-08-25T17:56:39.600Z,67
2022-08-25T17:59:05.703Z,61
2022-08-25T18:01:31.806Z,56
2022-08-25T18:03:57.903Z,50
2022-08-25T18:06:23.014Z,39
2022-08-25T18:08:49.091Z,33
2022-08-25T18:11:15.205Z,28
2022-08-25T18:13:41.289Z,22
2022-08-25T18:16:07.379Z,16
2022-08-25T18:18:33.494Z,11
2022-08-25T18:20:59.588Z,11
2022-08-25T18:23:25.666Z,5
2022-08-25T18:25:51.765Z,5
2022-08-25T18:28:17.895Z,0
2022-08-25T18:30:42.989Z,0
2022-08-25T18:33:08.111Z,0
2022-08-25T18:35:33.238Z,0
2022-08-25T18:37:58.346Z,0
2022-08-25T18:40:24.425Z,0
2022-08-25T18:42:50.519Z,0
2022-08-25T18:45:16.608Z,0
2022-08-25T18:47:42.727Z,0
2022-08-25T18:50:08.820Z,0
2022-08-25T18:52:34.903Z,0
2022-08-25T18:55:00.988Z,0
2022-08-25T18:57:27.127Z,0
2022-08-25T18:59:53.189Z,0
2022-08-25T19:02:19.281Z,0
2022-08-25T19:04:45.396Z,0
2022-08-25T19:07:11.470Z,0
2022-08-25T19:09:36.582Z,0
2022-08-25T19:12:02.685Z,0
2022-08-25T19:14:28.763Z,0
2022-08-25T19:16:54.855Z,0
2022-08-25T19:19:20.954Z,0
2022-08-25T19:21:47.076Z,0
2022-08-25T19:24:13.152Z,0
2022-08-25T19:26:38.277Z,0
2022-08-25T19:29:03.372Z,0
2022-08-25T19:31:28.505Z,0
2022-08-25T19:33:53.613Z,0
2022-08-25T19:36:19.704Z,0
2022-08-25T19:38:44.837Z,0
2022-08-25T19:41:09.944Z,0
2022-08-25T19:43:36.037Z,0
2022-08-25T19:46:02.130Z,0
2022-08-25T19:48:28.237Z,0
2022-08-25T19:50:54.312Z,0
2022-08-25T19:53:20.423Z,0
2022-08-25T19:55:46.514Z,0
2022-08-25T19:58:12.598Z,0
2022-08-25T20:00:38.709Z,0
2022-08-25T20:03:04.789Z,0
2022-08-25T20:05:30.909Z,0
2022-08-25T20:07:57.008Z,0
2022-08-25T20:10:23.072Z,0
2022-08-25T20:12:48.186Z,0
2022-08-25T20:15:14.305Z,0
2022-08-25T20:17:40.393Z,0
2022-08-25T20:20:06.476Z,0
2022-08-25T20:22:32.571Z,0
2022-08-25T20:24:58.679Z,0
2022-08-25T20:27:24.775Z,0
2022-08-25T20:29:49.877Z,0
2022-08-25T20:32:15.002Z,0
2022-08-25T20:34:41.081Z,0
2022-08-25T20:37:06.212Z,0
2022-08-25T20:39:31.329Z,0
2022-08-25T20:41:57.437Z,0
2022-08-25T20:44:23.511Z,0
2022-08-25T20:46:49.616Z,0
2022-08-25T20:49:15.700Z,0
2022-08-25T20:51:41.812Z,0
2022-08-25T20:54:07.894Z,0
2022-08-25T20:56:33.980Z,0
2022-08-25T20:59:00.103Z,0
2022-08-25T21:01:26.469Z,0
2022-08-25T21:03:52.283Z,0
2022-08-25T21:06:18.368Z,0
2022-08-25T21:08:44.465Z,0
2022-08-25T21:11:09.595Z,0
2022-08-25T21:13:35.689Z,0
2022-08-25T21:16:01.765Z,0
2022-08-25T21:18:27.865Z,0
2022-08-25T21:20:53.972Z,0
2022-08-25T21:23:20.080Z,0
2022-08-25T21:25:46.179Z,0
2022-08-25T21:28:11.273Z,0
2022-08-25T21:30:36.415Z,0
2022-08-25T21:33:02.487Z,0
2022-08-25T21:35:28.586Z,0
2022-08-25T21:37:53.722Z,0
2022-08-25T21:40:18.811Z,0
2022-08-25T21:42:44.915Z,0
2022-08-25T21:45:11.015Z,0
2022-08-25T21:47:37.107Z,0
2022-08-25T21:50:03.231Z,0
2022-08-25T21:52:29.295Z,0
2022-08-25T21:54:55.397Z,0
2022-08-25T21:57:21.481Z,0
2022-08-25T21:59:47.598Z,0
2022-08-25T22:02:13.683Z,0
2022-08-25T22:04:39.772Z,0
2022-08-25T22:07:05.862Z,0
2022-08-25T22:09:31.972Z,0
2022-08-25T22:11:57.068Z,0
2022-08-25T22:14:23.175Z,0
2022-08-25T22:16:49.276Z,0
2022-08-25T22:19:15.366Z,0
2022-08-25T22:21:41.448Z,0
2022-08-25T22:24:07.549Z,0
2022-08-25T22:26:33.646Z,0
2022-08-25T22:28:58.764Z,0
2022-08-25T22:31:23.885Z,0
2022-08-25T22:33:49.020Z,0
2022-08-25T22:36:14.120Z,0
2022-08-25T22:38:40.218Z,0
2022-08-25T22:41:06.301Z,0
2022-08-25T22:43:32.412Z,0
2022-08-25T22:45:58.484Z,0
2022-08-25T22:48:24.604Z,0
2022-08-25T22:50:50.691Z,0
2022-08-25T22:53:16.781Z,0
2022-08-25T22:55:42.885Z,0
2022-08-25T22:58:08.967Z,0
2022-08-25T23:00:35.066Z,0
2022-08-25T23:03:01.166Z,0
2022-08-25T23:05:27.261Z,0
2022-08-25T23:07:52.373Z,0
2022-08-25T23:10:18.457Z,0
2022-08-25T23:12:44.575Z,0
2022-08-25T23:15:10.644Z,0
2022-08-25T23:17:36.739Z,0
2022-08-25T23:20:02.843Z,0
2022-08-25T23:22:28.968Z,0
2022-08-25T23:24:54.056Z,0
2022-08-25T23:27:19.172Z,0
2022-08-25T23:29:44.303Z,0
2022-08-25T23:32:09.405Z,0
2022-08-25T23:34:35.498Z,0
2022-08-25T23:37:01.588Z,0
2022-08-25T23:39:27.701Z,0
2022-08-25T23:41:53.774Z,0
2022-08-25T23:44:19.874Z,0
2022-08-25T23:46:45.985Z,0
2022-08-25T23:49:12.063Z,0
2022-08-25T23:51:38.158Z,0
2022-08-25T23:54:04.255Z,0
2022-08-25T23:56:30.349Z,0
2022-08-25T23:58:56.436Z,0
